createdAt,value
2019-04-21T00:00:45.615Z,55.47
2019-04-21T00:03:21.701Z,55.88
2019-04-21T00:06:04.534Z,56.12
2019-04-21T00:08:35.361Z,56.25
2019-04-21T00:11:09.436Z,55.99
2019-04-21T00:13:32.830Z,55.90
2019-04-21T00:15:55.900Z,55.97
2019-04-21T00:18:48.609Z,56.16
2019-04-21T00:21:22.524Z,56.33
2019-04-21T00:24:01.807Z,56.75
2019-04-21T00:26:33.024Z,57.05
2019-04-21T00:29:09.583Z,56.98
2019-04-21T00:31:33.648Z,57.01
2019-04-21T00:33:50.187Z,57.11
2019-04-21T00:36:25.940Z,56.97
2019-04-21T00:39:23.287Z,56.90
2019-04-21T00:41:45.025Z,56.94
2019-04-21T00:44:08.718Z,57.13
2019-04-21T00:46:40.286Z,57.13
2019-04-21T00:49:18.189Z,57.06
2019-04-21T00:52:11.401Z,56.72
2019-04-21T00:54:51.966Z,56.59
2019-04-21T00:57:17.777Z,56.56
2019-04-21T00:59:47.868Z,56.84
2019-04-21T01:02:15.494Z,57.39
2019-04-21T01:04:50.106Z,57.57
2019-04-21T01:07:19.418Z,57.78
2019-04-21T01:09:45.285Z,57.93
2019-04-21T01:12:19.271Z,57.76
2019-04-21T01:14:58.145Z,57.29
2019-04-21T01:17:21.698Z,57.48
2019-04-21T01:19:52.339Z,57.56
2019-04-21T01:22:06.704Z,57.58
2019-04-21T01:24:41.787Z,57.83
2019-04-21T01:27:21.102Z,57.91
2019-04-21T01:30:01.256Z,57.66
2019-04-21T01:32:29.638Z,57.28
2019-04-21T01:35:02.626Z,57.37
2019-04-21T01:37:42.185Z,57.88
2019-04-21T01:40:14.773Z,58.20
2019-04-21T01:42:31.674Z,58.71
2019-04-21T01:45:05.403Z,58.94
2019-04-21T01:47:36.031Z,59.32
2019-04-21T01:49:59.257Z,59.58
2019-04-21T01:52:50.295Z,59.37
2019-04-21T01:55:24.930Z,59.41
2019-04-21T01:57:52.708Z,59.59
2019-04-21T02:00:30.518Z,59.75
2019-04-21T02:03:10.729Z,59.95
2019-04-21T02:05:37.739Z,59.94
2019-04-21T02:08:01.089Z,60.06
2019-04-21T02:10:40.306Z,60.54
2019-04-21T02:13:03.623Z,61.02
2019-04-21T02:15:43.004Z,61.04
2019-04-21T02:18:07.523Z,60.90
2019-04-21T02:20:34.498Z,61.06
2019-04-21T02:23:26.453Z,60.86
2019-04-21T02:25:47.676Z,60.70
2019-04-21T02:28:24.456Z,60.66
2019-04-21T02:33:47.478Z,60.13
2019-04-21T02:36:15.089Z,59.69
2019-04-21T02:38:39.345Z,58.94
2019-04-21T02:41:01.871Z,58.94
2019-04-21T02:46:13.007Z,59.05
2019-04-21T02:48:45.781Z,58.69
2019-04-21T02:51:10.349Z,58.93
2019-04-21T02:56:19.163Z,59.50
2019-04-21T03:01:31.279Z,59.69
2019-04-21T03:06:54.210Z,58.71
2019-04-21T03:09:24.354Z,58.85
2019-04-21T03:11:56.391Z,58.74
2019-04-21T03:14:31.053Z,58.93
2019-04-21T03:16:47.206Z,59.17
2019-04-21T03:19:33.023Z,59.37
2019-04-21T03:22:00.694Z,59.11
2019-04-21T03:24:33.192Z,59.03
2019-04-21T03:27:09.837Z,58.65
2019-04-21T03:29:40.203Z,58.44
2019-04-21T03:32:36.618Z,58.49
2019-04-21T03:35:00.440Z,58.43
2019-04-21T03:39:45.510Z,59.11
2019-04-21T03:42:21.593Z,59.61
2019-04-21T03:44:37.282Z,60.36
2019-04-21T03:47:15.311Z,60.43
2019-04-21T03:49:47.721Z,60.56
2019-04-21T04:03:28.118Z,62.00
2019-04-21T04:05:59.614Z,62.27
2019-04-21T04:08:43.809Z,62.55
2019-04-21T04:11:06.779Z,62.65
2019-04-21T04:13:37.203Z,62.67
2019-04-21T04:16:05.745Z,62.96
2019-04-21T04:18:41.152Z,63.05
2019-04-21T04:21:10.233Z,63.08
2019-04-21T04:23:41.563Z,63.10
2019-04-21T04:26:08.556Z,63.37
2019-04-21T04:36:33.920Z,63.88
2019-04-21T04:38:46.821Z,64.15
2019-04-21T04:41:47.127Z,64.27
2019-04-21T04:44:39.370Z,64.18
2019-04-21T04:46:26.637Z,64.15
2019-04-21T04:49:06.038Z,64.34
2019-04-21T04:53:55.381Z,65.05
2019-04-21T04:56:30.674Z,65.12
2019-04-21T04:59:24.571Z,65.15
2019-04-21T05:04:10.158Z,65.18
2019-04-21T05:09:15.101Z,65.38
2019-04-21T05:11:55.464Z,65.38
2019-04-21T05:14:13.334Z,65.22
2019-04-21T05:19:14.574Z,64.91
2019-04-21T05:21:39.003Z,64.86
2019-04-21T05:24:10.861Z,64.69
2019-04-21T05:26:32.773Z,64.59
2019-04-21T05:29:01.836Z,64.72
2019-04-21T05:32:00.481Z,64.65
2019-04-21T05:34:31.637Z,64.70
2019-04-21T05:37:20.189Z,64.52
2019-04-21T05:39:51.029Z,64.24
2019-04-21T05:42:10.462Z,64.20
2019-04-21T05:45:01.782Z,64.05
2019-04-21T05:47:35.318Z,64.01
2019-04-21T05:50:00.836Z,63.62
2019-04-21T05:52:26.423Z,63.27
2019-04-21T05:55:10.990Z,63.09
2019-04-21T05:57:38.078Z,62.96
2019-04-21T06:00:12.461Z,62.55
2019-04-21T06:02:43.793Z,62.25
2019-04-21T06:05:23.128Z,62.01
2019-04-21T06:07:41.438Z,61.82
2019-04-21T06:10:15.313Z,61.49
2019-04-21T06:12:53.804Z,61.14
2019-04-21T06:15:27.029Z,60.90
2019-04-21T06:17:50.554Z,60.66
2019-04-21T06:20:20.650Z,59.78
2019-04-21T06:22:56.559Z,59.70
2019-04-21T06:27:57.486Z,58.76
2019-04-21T06:30:33.285Z,57.96
2019-04-21T06:32:59.509Z,57.74
2019-04-21T06:35:55.562Z,57.22
2019-04-21T06:38:15.247Z,56.46
2019-04-21T06:40:46.271Z,55.62
2019-04-21T06:43:18.035Z,54.97
2019-04-21T06:45:50.467Z,54.81
2019-04-21T06:48:13.646Z,54.36
2019-04-21T06:50:51.084Z,54.05
2019-04-21T06:53:20.745Z,53.76
2019-04-21T06:55:46.742Z,53.32
2019-04-21T06:58:18.133Z,53.19
2019-04-21T07:00:42.465Z,52.44
2019-04-21T07:03:26.812Z,52.20
2019-04-21T07:05:57.294Z,51.76
2019-04-21T07:10:54.496Z,51.99
2019-04-21T07:13:23.580Z,51.84
2019-04-21T07:15:57.098Z,51.94
2019-04-21T07:18:34.337Z,51.77
2019-04-21T07:21:01.988Z,51.78
2019-04-21T07:23:32.355Z,51.58
2019-04-21T07:26:05.694Z,51.57
2019-04-21T07:28:38.845Z,51.24
2019-04-21T07:31:11.175Z,50.46
2019-04-21T07:33:53.859Z,50.22
2019-04-21T07:36:17.402Z,49.43
2019-04-21T07:38:39.986Z,48.76
2019-04-21T07:41:02.286Z,48.71
2019-04-21T07:43:35.578Z,48.03
2019-04-21T07:46:06.438Z,47.23
2019-04-21T07:48:52.572Z,46.21
2019-04-21T07:51:42.294Z,45.45
2019-04-21T07:54:13.748Z,45.38
2019-04-21T07:56:25.527Z,45.11
2019-04-21T07:59:18.878Z,44.38
2019-04-21T08:01:45.435Z,43.81
2019-04-21T08:04:31.991Z,43.45
2019-04-21T08:06:49.442Z,43.29
2019-04-21T08:09:13.685Z,41.58
2019-04-21T08:11:41.650Z,41.02
2019-04-21T08:14:23.670Z,39.95
2019-04-21T08:19:26.298Z,39.67
2019-04-21T08:22:02.171Z,38.24
2019-04-21T08:24:27.331Z,37.94
2019-04-21T08:27:04.965Z,36.39
2019-04-21T08:29:34.982Z,35.89
2019-04-21T08:34:34.851Z,36.76
2019-04-21T08:37:06.709Z,35.99
2019-04-21T08:39:37.952Z,35.85
2019-04-21T08:42:05.932Z,35.70
2019-04-21T08:44:43.193Z,35.17
2019-04-21T08:47:15.844Z,33.33
2019-04-21T08:49:43.646Z,34.28
2019-04-21T08:52:23.307Z,33.88
2019-04-21T08:54:52.639Z,32.59
2019-04-21T08:57:21.518Z,32.49
2019-04-21T08:59:51.831Z,31.94
2019-04-21T09:02:29.845Z,32.36
2019-04-21T09:04:58.698Z,32.81
2019-04-21T09:07:37.591Z,32.12
2019-04-21T09:10:02.929Z,32.15
2019-04-21T09:12:34.606Z,31.80
2019-04-21T09:15:08.098Z,32.15
2019-04-21T09:17:28.410Z,31.95
2019-04-21T09:20:13.883Z,31.67
2019-04-21T09:22:37.820Z,32.50
2019-04-21T09:25:14.648Z,32.29
2019-04-21T09:27:36.759Z,31.92
2019-04-21T09:29:59.352Z,32.25
2019-04-21T09:32:28.706Z,32.69
2019-04-21T09:34:57.993Z,32.52
2019-04-21T09:37:39.741Z,32.50
2019-04-21T09:39:59.543Z,32.34
2019-04-21T09:42:35.976Z,32.67
2019-04-21T09:45:05.784Z,31.24
2019-04-21T09:47:41.759Z,31.04
2019-04-21T09:50:06.773Z,31.28
2019-04-21T09:52:45.420Z,31.35
2019-04-21T09:55:14.281Z,29.86
2019-04-21T09:57:47.966Z,30.27
2019-04-21T10:00:22.483Z,30.46
2019-04-21T10:02:57.859Z,30.17
2019-04-21T10:05:19.312Z,30.60
2019-04-21T10:07:49.017Z,28.73
2019-04-21T10:10:19.243Z,28.31
2019-04-21T10:12:49.959Z,27.58
2019-04-21T10:15:21.983Z,27.95
2019-04-21T10:17:56.084Z,28.03
2019-04-21T10:20:26.579Z,28.40
2019-04-21T10:22:57.305Z,28.08
2019-04-21T10:25:28.261Z,27.62
2019-04-21T10:27:59.056Z,26.92
2019-04-21T10:30:28.998Z,27.49
2019-04-21T10:32:58.723Z,27.53
2019-04-21T10:35:29.023Z,26.71
2019-04-21T10:38:12.864Z,27.95
2019-04-21T10:40:33.853Z,27.33
2019-04-21T10:43:03.891Z,27.08
2019-04-21T10:45:34.897Z,27.12
2019-04-21T10:48:05.150Z,27.27
2019-04-21T10:50:36.960Z,27.78
2019-04-21T10:53:20.865Z,27.65
2019-04-21T10:56:04.477Z,28.08
2019-04-21T10:58:26.776Z,27.62
2019-04-21T11:01:04.174Z,27.54
2019-04-21T11:03:48.942Z,28.07
2019-04-21T11:06:20.986Z,27.66
2019-04-21T11:08:55.382Z,27.88
2019-04-21T11:11:23.745Z,26.59
2019-04-21T11:13:54.891Z,26.73
2019-04-21T11:16:24.745Z,26.83
2019-04-21T11:18:55.935Z,26.60
2019-04-21T11:21:27.149Z,27.09
2019-04-21T11:23:58.306Z,27.05
2019-04-21T11:26:29.871Z,27.47
2019-04-21T11:29:01.067Z,27.51
2019-04-21T11:31:31.476Z,27.29
2019-04-21T11:34:01.108Z,27.60
2019-04-21T11:36:31.436Z,27.43
2019-04-21T11:39:22.227Z,27.62
2019-04-21T11:41:41.624Z,28.17
2019-04-21T11:44:12.075Z,28.19
2019-04-21T11:46:42.681Z,27.92
2019-04-21T11:49:12.582Z,28.05
2019-04-21T11:51:42.795Z,27.56
2019-04-21T11:54:13.092Z,27.43
2019-04-21T11:56:43.375Z,28.37
2019-04-21T11:59:12.983Z,28.18
2019-04-21T12:01:43.527Z,28.11
2019-04-21T12:04:13.901Z,28.49
2019-04-21T12:06:47.288Z,28.83
2019-04-21T12:09:14.980Z,28.90
2019-04-21T12:11:45.372Z,29.06
2019-04-21T12:14:16.183Z,28.71
2019-04-21T12:16:46.825Z,29.06
2019-04-21T12:19:18.644Z,29.26
2019-04-21T12:22:00.413Z,28.78
2019-04-21T12:24:19.646Z,29.55
2019-04-21T12:26:49.931Z,29.61
2019-04-21T12:29:20.799Z,29.36
2019-04-21T12:32:04.047Z,29.56
2019-04-21T12:34:34.339Z,29.38
2019-04-21T12:37:04.612Z,29.51
2019-04-21T12:39:34.913Z,29.70
2019-04-21T12:42:04.812Z,29.18
2019-04-21T12:44:35.077Z,29.58
2019-04-21T12:47:05.839Z,29.69
2019-04-21T12:49:35.905Z,29.81
2019-04-21T12:52:06.295Z,30.08
2019-04-21T12:54:35.853Z,30.20
2019-04-21T12:57:05.533Z,30.14
2019-04-21T12:59:36.297Z,29.54
2019-04-21T13:02:07.561Z,30.12
2019-04-21T13:04:37.930Z,29.81
2019-04-21T13:07:07.855Z,30.03
2019-04-21T13:09:37.985Z,29.66
2019-04-21T13:12:08.976Z,29.68
2019-04-21T13:14:39.626Z,29.26
2019-04-21T13:17:10.041Z,29.11
2019-04-21T13:19:41.126Z,29.14
2019-04-21T13:22:12.090Z,28.87
2019-04-21T13:24:42.326Z,29.28
2019-04-21T13:27:12.750Z,28.78
2019-04-21T13:29:42.466Z,28.54
2019-04-21T13:32:12.588Z,28.41
2019-04-21T13:34:42.419Z,28.76
2019-04-21T13:37:12.099Z,28.33
2019-04-21T13:40:23.627Z,28.26
2019-04-21T13:42:40.198Z,28.52
2019-04-21T13:45:08.175Z,28.21
2019-04-21T13:47:38.675Z,28.25
2019-04-21T13:50:08.907Z,28.45
2019-04-21T13:52:38.629Z,28.32
2019-04-21T13:55:09.626Z,28.10
2019-04-21T13:57:40.919Z,27.64
2019-04-21T14:00:11.264Z,27.98
2019-04-21T14:02:42.681Z,28.27
2019-04-21T14:05:15.561Z,28.15
2019-04-21T14:07:46.138Z,27.67
2019-04-21T14:10:17.926Z,27.81
2019-04-21T14:12:48.910Z,27.71
2019-04-21T14:15:22.138Z,27.39
2019-04-21T14:17:53.059Z,27.58
2019-04-21T14:20:24.966Z,27.20
2019-04-21T14:22:57.133Z,27.05
2019-04-21T14:25:27.950Z,27.50
2019-04-21T14:27:57.926Z,27.44
2019-04-21T14:30:28.435Z,26.76
2019-04-21T14:32:58.191Z,27.22
2019-04-21T14:35:29.405Z,27.34
2019-04-21T14:38:00.268Z,27.43
2019-04-21T14:40:33.221Z,27.18
2019-04-21T14:43:02.801Z,27.04
2019-04-21T14:45:36.925Z,27.24
2019-04-21T14:48:12.178Z,26.63
2019-04-21T14:50:42.249Z,26.97
2019-04-21T14:53:17.945Z,27.33
2019-04-21T14:55:49.124Z,26.87
2019-04-21T14:58:19.177Z,26.59
2019-04-21T15:01:04.174Z,26.90
2019-04-21T15:03:34.328Z,26.68
2019-04-21T15:06:05.407Z,26.75
2019-04-21T15:08:35.434Z,26.75
2019-04-21T15:11:05.414Z,27.13
2019-04-21T15:13:35.502Z,27.33
2019-04-21T15:16:06.870Z,26.40
2019-04-21T15:18:36.889Z,26.42
2019-04-21T15:21:07.774Z,26.62
2019-04-21T15:23:38.202Z,26.13
2019-04-21T15:26:08.538Z,26.39
2019-04-21T15:28:40.510Z,26.74
2019-04-21T15:31:12.760Z,27.06
2019-04-21T15:33:41.354Z,26.35
2019-04-21T15:36:11.308Z,26.40
2019-04-21T15:38:40.896Z,26.69
2019-04-21T15:41:10.946Z,26.96
2019-04-21T15:43:42.583Z,27.02
2019-04-21T15:46:13.035Z,26.86
2019-04-21T15:48:42.953Z,26.82
2019-04-21T15:51:13.597Z,27.30
2019-04-21T15:53:45.882Z,26.79
2019-04-21T15:56:17.690Z,27.14
2019-04-21T15:58:50.571Z,27.09
2019-04-21T16:01:30.567Z,26.84
2019-04-21T16:04:02.103Z,27.08
2019-04-21T16:06:32.544Z,27.09
2019-04-21T16:09:03.283Z,26.97
2019-04-21T16:11:35.656Z,27.48
2019-04-21T16:14:07.938Z,27.62
2019-04-21T16:16:39.209Z,27.61
2019-04-21T16:19:10.078Z,27.67
2019-04-21T16:21:42.194Z,27.96
2019-04-21T16:24:12.201Z,28.01
2019-04-21T16:26:42.709Z,28.09
2019-04-21T16:29:13.292Z,28.03
2019-04-21T16:31:43.000Z,28.19
2019-04-21T16:34:13.770Z,28.20
2019-04-21T16:36:43.614Z,28.53
2019-04-21T16:39:13.568Z,28.76
2019-04-21T16:41:44.467Z,28.43
2019-04-21T16:44:14.199Z,28.40
2019-04-21T16:46:45.358Z,28.51
2019-04-21T16:49:15.855Z,28.26
2019-04-21T16:51:47.216Z,28.41
2019-04-21T16:54:19.905Z,28.58
2019-04-21T16:56:57.656Z,28.37
2019-04-21T16:59:30.606Z,28.36
2019-04-21T17:02:00.740Z,28.41
2019-04-21T17:04:30.702Z,28.35
2019-04-21T17:07:00.957Z,28.33
2019-04-21T17:09:30.711Z,28.62
2019-04-21T17:12:04.013Z,28.64
2019-04-21T17:14:49.682Z,28.68
2019-04-21T17:17:25.230Z,28.29
2019-04-21T17:19:41.827Z,28.53
2019-04-21T17:22:07.909Z,28.81
2019-04-21T17:24:38.027Z,28.86
2019-04-21T17:27:09.016Z,29.16
2019-04-21T17:29:39.037Z,29.08
2019-04-21T17:32:12.111Z,29.13
2019-04-21T17:34:42.018Z,29.28
2019-04-21T17:37:12.797Z,29.24
2019-04-21T17:39:42.982Z,29.25
2019-04-21T17:42:25.485Z,29.33
2019-04-21T17:44:45.404Z,29.60
2019-04-21T17:47:27.042Z,29.69
2019-04-21T17:49:51.548Z,29.73
2019-04-21T18:04:15.555Z,29.54
2019-04-21T18:07:08.097Z,29.88
2019-04-21T18:09:56.486Z,30.06
2019-04-21T18:12:17.982Z,30.39
2019-04-21T18:14:32.881Z,30.62
2019-04-21T18:17:02.546Z,30.59
2019-04-21T18:19:36.440Z,30.69
2019-04-21T18:22:12.840Z,30.70
2019-04-21T18:24:54.221Z,31.03
2019-04-21T18:27:15.699Z,31.24
2019-04-21T18:29:46.444Z,31.34
2019-04-21T18:32:19.713Z,31.34
2019-04-21T18:35:11.571Z,31.31
2019-04-21T18:37:50.837Z,31.40
2019-04-21T18:40:25.589Z,31.53
2019-04-21T18:43:30.809Z,31.75
2019-04-21T18:48:18.244Z,32.10
2019-04-21T18:50:53.249Z,32.12
2019-04-21T18:53:37.878Z,32.23
2019-04-21T18:55:59.418Z,32.32
2019-04-21T18:58:22.340Z,32.45
2019-04-21T19:01:02.765Z,32.55
2019-04-21T19:03:31.906Z,32.75
2019-04-21T19:06:03.874Z,32.87
2019-04-21T19:08:48.465Z,32.89
2019-04-21T19:11:19.012Z,32.95
2019-04-21T19:14:19.721Z,33.08
2019-04-21T19:16:42.901Z,33.22
2019-04-21T19:21:40.465Z,33.44
2019-04-21T19:24:28.190Z,33.53
2019-04-21T19:26:52.458Z,33.65
2019-04-21T19:29:24.079Z,33.75
2019-04-21T19:31:49.476Z,33.98
2019-04-21T19:34:11.349Z,34.15
2019-04-21T19:36:36.971Z,34.36
2019-04-21T19:39:16.243Z,34.54
2019-04-21T19:41:52.167Z,34.58
2019-04-21T19:44:26.178Z,34.76
2019-04-21T19:47:03.910Z,34.93
2019-04-21T19:49:40.572Z,35.06
2019-04-21T19:51:57.508Z,35.32
2019-04-21T19:54:25.091Z,35.50
2019-04-21T19:56:53.534Z,35.74
2019-04-21T19:59:34.005Z,35.93
2019-04-21T20:01:56.223Z,36.17
2019-04-21T20:04:34.415Z,36.38
2019-04-21T20:07:05.962Z,36.67
2019-04-21T20:09:46.211Z,36.89
2019-04-21T20:12:18.465Z,37.14
2019-04-21T20:14:55.391Z,37.44
2019-04-21T20:17:13.565Z,37.65
2019-04-21T20:19:36.235Z,37.79
2019-04-21T20:22:07.161Z,37.97
2019-04-21T20:24:39.501Z,38.22
2019-04-21T20:27:15.925Z,38.53
2019-04-21T20:29:57.880Z,38.82
2019-04-21T20:32:52.154Z,39.05
2019-04-21T20:35:02.839Z,39.35
2019-04-21T20:37:32.768Z,39.61
2019-04-21T20:39:53.394Z,39.83
2019-04-21T20:42:27.945Z,40.09
2019-04-21T20:45:23.556Z,40.41
2019-04-21T20:47:29.379Z,40.58
2019-04-21T20:50:03.284Z,40.87
2019-04-21T20:52:41.345Z,41.14
2019-04-21T20:55:05.888Z,41.55
2019-04-21T20:57:39.787Z,41.79
2019-04-21T21:00:13.693Z,41.99
2019-04-21T21:02:49.246Z,42.29
2019-04-21T21:05:14.320Z,42.53
2019-04-21T21:07:50.047Z,42.68
2019-04-21T21:10:20.747Z,42.84
2019-04-21T21:12:57.288Z,43.16
2019-04-21T21:15:18.339Z,43.23
2019-04-21T21:18:13.421Z,43.26
2019-04-21T21:20:32.465Z,43.38
2019-04-21T21:22:57.306Z,43.71
2019-04-21T21:25:41.404Z,43.83
2019-04-21T21:27:55.279Z,43.98
2019-04-21T21:30:33.840Z,44.05
2019-04-21T21:33:11.457Z,44.28
2019-04-21T21:35:35.760Z,44.63
2019-04-21T21:38:13.128Z,45.03
2019-04-21T21:40:38.155Z,45.26
2019-04-21T21:42:55.365Z,45.28
2019-04-21T21:45:27.504Z,45.27
2019-04-21T21:48:12.673Z,45.35
2019-04-21T21:50:38.664Z,45.39
2019-04-21T21:53:06.477Z,45.55
2019-04-21T21:55:32.793Z,45.56
2019-04-21T21:58:03.920Z,45.65
2019-04-21T22:00:36.938Z,45.98
2019-04-21T22:03:16.287Z,46.29
2019-04-21T22:05:45.522Z,46.49
2019-04-21T22:08:08.399Z,46.45
2019-04-21T22:10:39.173Z,46.35
2019-04-21T22:13:14.354Z,46.27
2019-04-21T22:15:41.548Z,46.32
2019-04-21T22:18:31.571Z,46.35
2019-04-21T22:20:58.863Z,46.24
2019-04-21T22:23:32.367Z,46.00
2019-04-21T22:25:47.538Z,45.91
2019-04-21T22:28:17.797Z,45.90
2019-04-21T22:30:51.250Z,46.04
2019-04-21T22:33:21.706Z,46.32
2019-04-21T22:36:00.396Z,46.61
2019-04-21T22:38:38.580Z,46.85
2019-04-21T22:41:08.752Z,46.97
2019-04-21T22:43:32.870Z,47.07
2019-04-21T22:45:55.913Z,47.07
2019-04-21T22:48:28.592Z,47.21
2019-04-21T22:50:58.220Z,47.43
2019-04-21T22:53:34.766Z,47.49
2019-04-21T22:56:07.399Z,47.59
2019-04-21T22:58:35.709Z,47.81
2019-04-21T23:01:04.265Z,48.04
2019-04-21T23:03:33.969Z,48.21
2019-04-21T23:06:10.931Z,48.38
2019-04-21T23:08:40.528Z,48.55
2019-04-21T23:11:10.797Z,49.01
2019-04-21T23:13:38.678Z,48.93
2019-04-21T23:16:09.989Z,48.95
2019-04-21T23:18:59.399Z,49.16
2019-04-21T23:21:27.773Z,49.21
2019-04-21T23:24:05.852Z,49.00
2019-04-21T23:26:33.176Z,49.12
2019-04-21T23:29:10.324Z,49.29
2019-04-21T23:31:41.803Z,49.09
2019-04-21T23:33:52.439Z,48.93
2019-04-21T23:36:26.297Z,48.72
2019-04-21T23:38:55.399Z,48.66
2019-04-21T23:41:26.065Z,49.21
2019-04-21T23:44:03.120Z,49.31
2019-04-21T23:46:33.038Z,49.21
2019-04-21T23:49:16.063Z,49.08
2019-04-21T23:51:43.452Z,49.19
2019-04-21T23:54:01.902Z,49.37
2019-04-21T23:56:35.791Z,49.52
2019-04-21T23:59:06.406Z,49.73
